N999SP KORL-KJAX
Flight info
| Callsign | N999SP |
|---|---|
| Flight time | N/A |
| Altitude | VFR |
| Route | |
| Aircraft | SF50/L-VGD/C |
Departure
| Time | 2026-04-28 20:58 |
|---|---|
| Airport | Orlando Executive Airport (KORL) |
Arrival
| Time | N/A |
|---|---|
| Airport | Jacksonville International Airport (KJAX) |
| Time | Latitude | Longitude | Altitude | Speed | Heading |
|---|---|---|---|---|---|
| 2026-04-28 20:57 | 28.70722 | -81.29649 | 945 ft | 165 kts | 5° |
| 2026-04-28 20:58 | 28.71855 | -81.29601 | 947 ft | 165 kts | 6° |
| 2026-04-28 20:58 | 28.72995 | -81.29613 | 943 ft | 162 kts | 2° |
| 2026-04-28 20:58 | 28.74136 | -81.29689 | 951 ft | 165 kts | 360° |
| 2026-04-28 20:58 | 28.75293 | -81.29754 | 944 ft | 184 kts | 3° |
| 2026-04-28 20:59 | 28.76743 | -81.29857 | 962 ft | 219 kts | 1° |
| 2026-04-28 20:59 | 28.78319 | -81.29997 | 1039 ft | 237 kts | 359° |
| 2026-04-28 20:59 | 28.79956 | -81.30142 | 1365 ft | 240 kts | 0° |
| 2026-04-28 20:59 | 28.81422 | -81.30538 | 1383 ft | 200 kts | 346° |
| 2026-04-28 21:00 | 28.82779 | -81.31127 | 1251 ft | 229 kts | 342° |
| 2026-04-28 21:00 | 28.84295 | -81.31928 | 1604 ft | 250 kts | 337° |
| 2026-04-28 21:00 | 28.85845 | -81.32789 | 2457 ft | 241 kts | 335° |
| 2026-04-28 21:00 | 28.87300 | -81.33534 | 2481 ft | 218 kts | 350° |
| 2026-04-28 21:01 | 28.88758 | -81.33744 | 2343 ft | 205 kts | 359° |
| 2026-04-28 21:01 | 28.90083 | -81.33880 | 2645 ft | 173 kts | 358° |
| 2026-04-28 21:01 | 28.91188 | -81.34013 | 2903 ft | 155 kts | 358° |
| 2026-04-28 21:01 | 28.92103 | -81.34235 | 3346 ft | 131 kts | 350° |
| 2026-04-28 21:02 | 28.92977 | -81.34494 | 3525 ft | 124 kts | 348° |
| 2026-04-28 21:02 | 28.93786 | -81.34760 | 3708 ft | 128 kts | 353° |
| 2026-04-28 21:02 | 28.94717 | -81.35006 | 4272 ft | 130 kts | 351° |
| 2026-04-28 21:02 | 28.95586 | -81.35234 | 4530 ft | 142 kts | 351° |
| 2026-04-28 21:03 | 28.96487 | -81.35459 | 4947 ft | 137 kts | 351° |
| 2026-04-28 21:03 | 28.97476 | -81.35679 | 5360 ft | 149 kts | 349° |
| 2026-04-28 21:03 | 28.98537 | -81.35919 | 5766 ft | 162 kts | 348° |
| 2026-04-28 21:03 | 28.99646 | -81.36179 | 6346 ft | 160 kts | 348° |
| 2026-04-28 21:04 | 29.00690 | -81.36472 | 7042 ft | 152 kts | 345° |
| 2026-04-28 21:04 | 29.01734 | -81.36825 | 7407 ft | 164 kts | 345° |
| 2026-04-28 21:04 | 29.02824 | -81.37214 | 7903 ft | 166 kts | 344° |
| 2026-04-28 21:04 | 29.03892 | -81.37616 | 8588 ft | 154 kts | 345° |
| 2026-04-28 21:05 | 29.04889 | -81.38014 | 9128 ft | 155 kts | 343° |
| 2026-04-28 21:05 | 29.05916 | -81.38468 | 9611 ft | 157 kts | 342° |
| 2026-04-28 21:05 | 29.06940 | -81.38976 | 9935 ft | 169 kts | 344° |
| 2026-04-28 21:05 | 29.08021 | -81.39332 | 10508 ft | 158 kts | 348° |
| 2026-04-28 21:06 | 29.09157 | -81.39641 | 10662 ft | 177 kts | 352° |
| 2026-04-28 21:06 | 29.10356 | -81.39921 | 11148 ft | 175 kts | 351° |
| 2026-04-28 21:06 | 29.11681 | -81.40248 | 10846 ft | 217 kts | 349° |
| 2026-04-28 21:06 | 29.13232 | -81.40687 | 10302 ft | 255 kts | 348° |
| 2026-04-28 21:07 | 29.14639 | -81.41168 | 11260 ft | 199 kts | 345° |
| 2026-04-28 21:07 | 29.16193 | -81.41715 | 10872 ft | 244 kts | 345° |
| 2026-04-28 21:07 | 29.17869 | -81.42360 | 10487 ft | 253 kts | 342° |
| 2026-04-28 21:07 | 29.19422 | -81.43032 | 10475 ft | 229 kts | 341° |
| 2026-04-28 21:08 | 29.20838 | -81.43657 | 10640 ft | 203 kts | 343° |
| 2026-04-28 21:08 | 29.22140 | -81.44163 | 10670 ft | 193 kts | 345° |
| 2026-04-28 21:08 | 29.23393 | -81.44647 | 10675 ft | 186 kts | 345° |
| 2026-04-28 21:08 | 29.24603 | -81.45127 | 10673 ft | 182 kts | 343° |
| 2026-04-28 21:09 | 29.25773 | -81.45587 | 10675 ft | 178 kts | 345° |
| 2026-04-28 21:09 | 29.26944 | -81.46036 | 10676 ft | 175 kts | 345° |
| 2026-04-28 21:09 | 29.28096 | -81.46461 | 10676 ft | 173 kts | 345° |
| 2026-04-28 21:09 | 29.29237 | -81.46883 | 10676 ft | 171 kts | 345° |
| 2026-04-28 21:10 | 29.30368 | -81.47306 | 10681 ft | 170 kts | 344° |
| 2026-04-28 21:10 | 29.31481 | -81.47713 | 10681 ft | 169 kts | 344° |
| 2026-04-28 21:10 | 29.32607 | -81.48117 | 10682 ft | 168 kts | 345° |
| 2026-04-28 21:10 | 29.33722 | -81.48526 | 10689 ft | 167 kts | 345° |
| 2026-04-28 21:11 | 29.34827 | -81.48937 | 10684 ft | 166 kts | 345° |
| 2026-04-28 21:11 | 29.35919 | -81.49331 | 10682 ft | 166 kts | 345° |
| 2026-04-28 21:11 | 29.37021 | -81.49725 | 10683 ft | 165 kts | 344° |
| 2026-04-28 21:11 | 29.38121 | -81.50107 | 10685 ft | 164 kts | 348° |
| 2026-04-28 21:12 | 29.39233 | -81.50398 | 10681 ft | 164 kts | 350° |
| 2026-04-28 21:12 | 29.40349 | -81.50672 | 10678 ft | 164 kts | 349° |
| 2026-04-28 21:12 | 29.41462 | -81.50937 | 10683 ft | 163 kts | 349° |
| 2026-04-28 21:12 | 29.42563 | -81.51213 | 10683 ft | 166 kts | 350° |
| 2026-04-28 21:13 | 29.43832 | -81.51523 | 10702 ft | 201 kts | 349° |
| 2026-04-28 21:13 | 29.45167 | -81.51847 | 10697 ft | 192 kts | 349° |
| 2026-04-28 21:13 | 29.46486 | -81.52158 | 10695 ft | 196 kts | 349° |
| 2026-04-28 21:13 | 29.47815 | -81.52481 | 10695 ft | 198 kts | 349° |
| 2026-04-28 21:14 | 29.49174 | -81.52812 | 10696 ft | 200 kts | 349° |
| 2026-04-28 21:14 | 29.50544 | -81.53136 | 10699 ft | 202 kts | 351° |
| 2026-04-28 21:14 | 29.51935 | -81.53458 | 10696 ft | 203 kts | 351° |
| 2026-04-28 21:14 | 29.53304 | -81.53780 | 10696 ft | 203 kts | 350° |